Fontana, California
Current Conditions -  °F | °C
As of 3:53 AM on Wednesday 28 Jan 2015 (Local Time) from KONT Reporting Station
Broken Clouds Broken Clouds  
Wind Chill: 12°   Ceiling: 20000
Heat Index: 12°   Visibility: 10mi
Dew Point:   Wind: 3mph
Humidity: 80%   Direction: 80°E
Pressure: 30.15"   Gusts: NA
Location:  34.1°N, 117.43°W
Report Text: KONT 281153Z 08003KT 10SM BKN200 12/08 A3015 RMK AO2 SLP203 FU SW T01170083 10144 20111 58010
Loading
Personal Weather Stations






























Interactive Weather Map New forecast layout! Learn more

10-Day Weather Forecast

Advertisements
Track Severe Weather on mobile